Time;durP1;ratioP1;P1;durP2;ratioP2;P2;SDS_P1;SDS_P2;PMS_P1;PMS_P2;Temp;Humidity;BMP_temperature;BMP_pressure;BME280_temperature;BME280_humidity;BME280_pressure;Samples;Min_cycle;Max_cycle;Signal;HPM_P1;HPM_P2
2024/01/20 00:02:11;;;;;;;7.30;2.05;;;;;;;;;;5020430;28;20235;-73
2024/01/20 00:04:37;;;;;;;3.42;2.40;;;;;;;;;;5018384;28;20508;-73
2024/01/20 00:07:03;;;;;;;4.78;2.45;;;;;;;;;;5018750;28;20124;-74
2024/01/20 00:09:30;;;;;;;3.55;2.30;;;;;;;;;;5012420;28;20137;-73
2024/01/20 00:11:56;;;;;;;7.57;2.30;;;;;;;;;;5025514;28;20038;-73
2024/01/20 00:14:22;;;;;;;3.38;2.70;;;;;;;;;;5020969;28;20048;-73
2024/01/20 00:16:48;;;;;;;4.72;3.45;;;;;;;;;;5014920;28;20053;-73
2024/01/20 00:19:14;;;;;;;3.67;2.30;;;;;;;;;;5020080;28;20099;-75
2024/01/20 00:21:40;;;;;;;3.80;2.50;;;;;;;;;;5018285;28;20065;-75
2024/01/20 00:24:07;;;;;;;2.60;2.38;;;;;;;;;;5015330;28;20053;-72
2024/01/20 00:26:33;;;;;;;4.15;2.47;;;;;;;;;;5015628;28;20085;-73
2024/01/20 00:28:59;;;;;;;6.28;3.08;;;;;;;;;;5020929;28;20587;-72
2024/01/20 00:31:25;;;;;;;3.38;3.08;;;;;;;;;;5015220;28;20629;-72
2024/01/20 00:33:51;;;;;;;2.83;2.35;;;;;;;;;;5019439;28;20179;-72
2024/01/20 00:36:18;;;;;;;5.65;3.05;;;;;;;;;;5017001;28;20049;-72
2024/01/20 00:38:43;;;;;;;5.82;3.33;;;;;;;;;;5015462;28;20053;-72
2024/01/20 00:41:10;;;;;;;5.05;3.40;;;;;;;;;;5017219;28;20064;-72
2024/01/20 00:43:36;;;;;;;4.65;3.33;;;;;;;;;;5017373;28;20053;-72
2024/01/20 00:46:02;;;;;;;6.57;3.90;;;;;;;;;;5017857;28;20110;-73
2024/01/20 00:48:28;;;;;;;4.90;4.25;;;;;;;;;;5016458;28;20404;-72
2024/01/20 00:50:54;;;;;;;4.95;4.45;;;;;;;;;;5015637;28;20345;-73
2024/01/20 00:53:20;;;;;;;11.98;4.15;;;;;;;;;;5016953;28;20057;-72
2024/01/20 00:55:46;;;;;;;4.60;4.07;;;;;;;;;;5023769;28;20081;-73
2024/01/20 00:58:12;;;;;;;11.00;5.78;;;;;;;;;;5014247;28;20050;-72
2024/01/20 01:00:38;;;;;;;8.13;4.13;;;;;;;;;;5016449;28;20045;-72
2024/01/20 01:03:04;;;;;;;6.20;4.50;;;;;;;;;;5016231;28;20131;-73
2024/01/20 01:05:30;;;;;;;10.10;4.88;;;;;;;;;;5016865;28;20080;-73
2024/01/20 01:07:57;;;;;;;8.18;4.25;;;;;;;;;;5023407;28;20512;-73
2024/01/20 01:10:23;;;;;;;6.47;4.60;;;;;;;;;;5015473;28;20033;-73
2024/01/20 01:12:49;;;;;;;8.38;5.65;;;;;;;;;;5013097;28;20100;-72
2024/01/20 01:15:15;;;;;;;9.05;6.25;;;;;;;;;;5011972;28;20056;-73
2024/01/20 01:17:41;;;;;;;6.03;5.03;;;;;;;;;;5015020;28;20050;-73
2024/01/20 01:20:08;;;;;;;6.05;4.80;;;;;;;;;;5016156;28;20381;-73
2024/01/20 01:22:34;;;;;;;5.75;5.15;;;;;;;;;;5014634;28;20057;-73
2024/01/20 01:25:01;;;;;;;7.10;5.07;;;;;;;;;;5013741;28;20050;-73
2024/01/20 01:27:27;;;;;;;5.00;4.38;;;;;;;;;;5011305;28;20050;-73
2024/01/20 01:29:53;;;;;;;5.63;4.30;;;;;;;;;;5014145;28;20054;-73
2024/01/20 01:32:19;;;;;;;5.97;4.18;;;;;;;;;;5015840;28;20073;-73
2024/01/20 01:34:45;;;;;;;6.00;5.10;;;;;;;;;;5014379;28;20058;-73
2024/01/20 01:37:11;;;;;;;5.72;4.97;;;;;;;;;;5021667;28;20049;-73
2024/01/20 01:39:37;;;;;;;5.72;4.35;;;;;;;;;;5022820;28;20084;-73
2024/01/20 01:42:03;;;;;;;7.40;5.30;;;;;;;;;;5023934;28;20057;-73
2024/01/20 01:44:29;;;;;;;5.28;3.92;;;;;;;;;;5021215;28;20068;-73
2024/01/20 01:46:56;;;;;;;4.82;3.97;;;;;;;;;;5021359;28;20049;-73
2024/01/20 01:49:22;;;;;;;6.47;4.50;;;;;;;;;;5020715;28;20037;-72
2024/01/20 01:51:49;;;;;;;5.97;4.82;;;;;;;;;;5021272;28;20124;-73
2024/01/20 01:54:15;;;;;;;6.50;4.53;;;;;;;;;;5022183;28;20044;-72
2024/01/20 01:56:42;;;;;;;5.30;4.38;;;;;;;;;;5022502;28;20053;-73
2024/01/20 01:59:09;;;;;;;10.52;6.13;;;;;;;;;;5021405;28;20049;-72
2024/01/20 02:01:35;;;;;;;7.57;4.90;;;;;;;;;;5022019;28;20134;-73
2024/01/20 02:04:01;;;;;;;5.70;3.75;;;;;;;;;;5023540;28;20045;-73
2024/01/20 02:06:27;;;;;;;5.00;4.50;;;;;;;;;;5020796;28;20392;-72
2024/01/20 02:08:53;;;;;;;8.38;4.07;;;;;;;;;;5021006;28;20053;-72
2024/01/20 02:11:20;;;;;;;7.55;4.43;;;;;;;;;;5020543;28;20053;-72
2024/01/20 02:13:46;;;;;;;6.75;4.40;;;;;;;;;;5021772;28;20045;-73
2024/01/20 02:16:12;;;;;;;7.20;5.10;;;;;;;;;;5022151;28;20381;-73
2024/01/20 02:18:38;;;;;;;4.22;3.80;;;;;;;;;;5022437;28;20052;-73
2024/01/20 02:21:07;;;;;;;4.55;3.45;;;;;;;;;;5021382;28;20605;-73
2024/01/20 02:23:39;;;;;;;3.47;3.15;;;;;;;;;;5023313;28;20068;-73
2024/01/20 02:26:05;;;;;;;5.73;3.50;;;;;;;;;;5022764;28;20499;-73
2024/01/20 02:28:31;;;;;;;4.25;3.67;;;;;;;;;;5007594;28;20045;-72
2024/01/20 02:30:57;;;;;;;6.55;4.22;;;;;;;;;;5024957;28;20041;-73
2024/01/20 02:33:23;;;;;;;6.72;4.57;;;;;;;;;;5025966;28;20048;-73
2024/01/20 02:35:49;;;;;;;11.40;4.97;;;;;;;;;;5026043;28;20460;-72
2024/01/20 02:38:15;;;;;;;6.28;4.63;;;;;;;;;;5025946;28;20124;-73
2024/01/20 02:40:41;;;;;;;6.10;4.93;;;;;;;;;;5026295;28;20053;-73
2024/01/20 02:43:07;;;;;;;6.18;4.57;;;;;;;;;;5026003;28;20175;-73
2024/01/20 02:45:33;;;;;;;8.30;4.97;;;;;;;;;;5023725;28;20049;-73
2024/01/20 02:47:59;;;;;;;9.60;6.10;;;;;;;;;;5025605;28;20045;-73
2024/01/20 02:50:25;;;;;;;7.28;5.30;;;;;;;;;;5022730;28;20049;-73
2024/01/20 02:52:54;;;;;;;9.85;5.60;;;;;;;;;;5024637;28;20152;-73
2024/01/20 02:55:20;;;;;;;6.57;5.18;;;;;;;;;;5023567;28;20045;-73
2024/01/20 02:57:47;;;;;;;10.95;6.50;;;;;;;;;;5022949;28;20192;-73
2024/01/20 03:00:13;;;;;;;9.18;6.97;;;;;;;;;;5025647;28;20041;-73
2024/01/20 03:02:39;;;;;;;9.80;6.75;;;;;;;;;;5025472;28;20428;-73
2024/01/20 03:05:05;;;;;;;12.82;7.07;;;;;;;;;;5024555;28;20150;-72
2024/01/20 03:07:31;;;;;;;7.93;6.47;;;;;;;;;;5025407;28;20116;-73
2024/01/20 03:09:57;;;;;;;11.02;6.82;;;;;;;;;;5024451;28;20085;-73
2024/01/20 03:12:23;;;;;;;7.07;6.05;;;;;;;;;;5024575;28;20037;-73
2024/01/20 03:14:49;;;;;;;7.75;5.97;;;;;;;;;;5024762;28;20045;-73
2024/01/20 03:17:15;;;;;;;7.07;6.38;;;;;;;;;;5023787;28;20554;-73
2024/01/20 03:19:42;;;;;;;8.30;6.72;;;;;;;;;;5024730;28;20042;-73
2024/01/20 03:22:08;;;;;;;9.80;7.13;;;;;;;;;;5024679;28;20051;-73
2024/01/20 03:24:34;;;;;;;7.95;6.57;;;;;;;;;;5025730;28;20045;-73
2024/01/20 03:27:00;;;;;;;10.48;7.45;;;;;;;;;;5023468;28;20217;-72
2024/01/20 03:29:26;;;;;;;11.77;8.88;;;;;;;;;;5023780;28;20092;-73
2024/01/20 03:31:52;;;;;;;10.88;8.88;;;;;;;;;;5023144;28;20509;-73
2024/01/20 03:34:19;;;;;;;12.95;9.15;;;;;;;;;;5024193;28;20120;-73
2024/01/20 03:36:46;;;;;;;11.52;10.13;;;;;;;;;;5025298;28;20079;-72
2024/01/20 03:39:12;;;;;;;12.88;10.50;;;;;;;;;;5023435;28;20049;-73
2024/01/20 03:41:38;;;;;;;12.70;10.45;;;;;;;;;;5023428;28;20140;-72
2024/01/20 03:44:04;;;;;;;16.38;11.55;;;;;;;;;;5024125;28;20542;-72
2024/01/20 03:46:30;;;;;;;15.80;11.25;;;;;;;;;;5022515;28;20049;-73
2024/01/20 03:48:56;;;;;;;13.75;10.82;;;;;;;;;;5023392;28;20046;-73
2024/01/20 03:51:26;;;;;;;14.00;11.80;;;;;;;;;;5022715;28;20440;-73
2024/01/20 03:53:52;;;;;;;16.90;12.18;;;;;;;;;;5024359;28;20105;-72
2024/01/20 03:56:18;;;;;;;14.00;12.38;;;;;;;;;;5023299;28;20085;-72
2024/01/20 03:58:44;;;;;;;14.93;11.95;;;;;;;;;;5023705;28;20046;-73
2024/01/20 04:01:10;;;;;;;13.90;10.90;;;;;;;;;;5024026;28;20049;-73
2024/01/20 04:03:36;;;;;;;11.60;9.93;;;;;;;;;;5023589;28;20143;-72
2024/01/20 04:06:03;;;;;;;11.88;10.63;;;;;;;;;;5022615;28;20063;-73
2024/01/20 04:08:29;;;;;;;12.95;10.35;;;;;;;;;;5021947;28;20047;-73
2024/01/20 04:10:55;;;;;;;14.60;11.63;;;;;;;;;;5020364;28;20041;-73
2024/01/20 04:13:21;;;;;;;15.57;11.00;;;;;;;;;;5023143;28;20053;-73
2024/01/20 04:15:47;;;;;;;15.93;12.15;;;;;;;;;;5020739;28;20141;-73
2024/01/20 04:18:14;;;;;;;16.65;11.25;;;;;;;;;;5023900;28;20064;-73
2024/01/20 04:20:40;;;;;;;15.25;12.98;;;;;;;;;;5022503;28;21604;-73
2024/01/20 04:23:06;;;;;;;18.40;13.45;;;;;;;;;;5024385;28;20524;-72
2024/01/20 04:25:32;;;;;;;15.38;12.75;;;;;;;;;;5023751;28;20057;-73
2024/01/20 04:27:58;;;;;;;16.45;12.70;;;;;;;;;;5022895;28;20134;-73
2024/01/20 04:30:24;;;;;;;16.35;12.63;;;;;;;;;;5022097;28;20044;-73
2024/01/20 04:32:50;;;;;;;15.25;11.70;;;;;;;;;;5023654;28;20045;-73
2024/01/20 04:35:16;;;;;;;19.52;13.65;;;;;;;;;;5023825;28;20377;-73
2024/01/20 04:37:42;;;;;;;17.90;13.50;;;;;;;;;;5021879;28;20103;-73
2024/01/20 04:40:08;;;;;;;19.05;13.48;;;;;;;;;;5023008;28;20049;-73
2024/01/20 04:42:34;;;;;;;17.05;14.25;;;;;;;;;;5023263;28;20051;-73
2024/01/20 04:45:03;;;;;;;21.70;13.48;;;;;;;;;;5023201;28;20489;-73
2024/01/20 04:47:29;;;;;;;17.63;13.02;;;;;;;;;;5021681;28;20383;-73
2024/01/20 04:49:55;;;;;;;17.98;13.05;;;;;;;;;;5023273;28;20045;-73
2024/01/20 04:52:21;;;;;;;17.10;12.70;;;;;;;;;;5023176;28;20049;-73
2024/01/20 04:54:47;;;;;;;14.82;12.02;;;;;;;;;;5023996;28;20107;-73
2024/01/20 04:57:13;;;;;;;17.27;13.18;;;;;;;;;;5023293;28;20518;-73
2024/01/20 04:59:39;;;;;;;15.38;11.95;;;;;;;;;;5023479;28;20890;-73
2024/01/20 05:02:05;;;;;;;18.25;12.45;;;;;;;;;;5022949;28;20045;-73
2024/01/20 05:04:31;;;;;;;15.68;12.63;;;;;;;;;;5019969;28;20041;-73
2024/01/20 05:06:57;;;;;;;13.95;11.60;;;;;;;;;;5022229;28;20491;-73
2024/01/20 05:09:23;;;;;;;17.48;13.00;;;;;;;;;;5021424;28;20046;-73
2024/01/20 05:11:49;;;;;;;19.00;13.77;;;;;;;;;;5022468;28;20056;-73
2024/01/20 05:14:15;;;;;;;14.80;11.73;;;;;;;;;;5023550;28;20073;-73
2024/01/20 05:16:41;;;;;;;20.30;14.68;;;;;;;;;;5023015;28;20101;-73
2024/01/20 05:19:07;;;;;;;17.98;12.82;;;;;;;;;;5022235;28;20049;-73
2024/01/20 05:21:33;;;;;;;15.73;12.25;;;;;;;;;;5022909;28;20155;-73
2024/01/20 05:23:59;;;;;;;18.27;13.40;;;;;;;;;;5023178;28;20127;-73
2024/01/20 05:26:25;;;;;;;18.33;14.13;;;;;;;;;;5021181;28;20049;-73
2024/01/20 05:28:51;;;;;;;17.98;13.63;;;;;;;;;;5023288;28;20049;-73
2024/01/20 05:31:17;;;;;;;17.67;13.15;;;;;;;;;;5018412;28;20037;-72
2024/01/20 05:33:43;;;;;;;20.73;14.90;;;;;;;;;;5021190;28;20041;-73
2024/01/20 05:36:12;;;;;;;19.80;14.05;;;;;;;;;;5023230;28;20110;-73
2024/01/20 05:38:38;;;;;;;23.17;15.60;;;;;;;;;;5022649;28;20114;-72
2024/01/20 05:41:05;;;;;;;18.27;14.25;;;;;;;;;;5024020;28;20069;-73
2024/01/20 05:43:31;;;;;;;19.67;13.48;;;;;;;;;;5021736;28;20042;-73
2024/01/20 05:45:57;;;;;;;16.15;13.43;;;;;;;;;;5023256;28;20037;-73
2024/01/20 05:48:23;;;;;;;21.95;13.43;;;;;;;;;;5021760;28;20518;-73
2024/01/20 05:50:49;;;;;;;21.33;13.85;;;;;;;;;;5023231;28;20069;-73
2024/01/20 05:53:15;;;;;;;19.42;14.43;;;;;;;;;;5019604;28;20079;-73
2024/01/20 05:55:41;;;;;;;23.27;15.95;;;;;;;;;;5022931;28;20194;-73
2024/01/20 05:58:07;;;;;;;18.33;14.50;;;;;;;;;;5025850;28;20044;-74
2024/01/20 06:00:33;;;;;;;21.95;15.38;;;;;;;;;;5025059;28;20053;-73
2024/01/20 06:02:59;;;;;;;24.58;16.13;;;;;;;;;;5027287;28;20041;-73
2024/01/20 06:05:25;;;;;;;22.38;15.30;;;;;;;;;;5024888;28;20140;-73
2024/01/20 06:07:51;;;;;;;22.00;14.73;;;;;;;;;;5026856;28;20144;-73
2024/01/20 06:10:17;;;;;;;19.10;14.05;;;;;;;;;;5027476;28;20069;-74
2024/01/20 06:12:43;;;;;;;23.02;15.93;;;;;;;;;;5026933;28;20046;-73
2024/01/20 06:15:09;;;;;;;24.25;15.73;;;;;;;;;;5027099;28;20516;-73
2024/01/20 06:17:35;;;;;;;24.15;14.77;;;;;;;;;;5027141;28;20057;-73
2024/01/20 06:20:03;;;;;;;19.63;13.60;;;;;;;;;;5027112;28;20045;-73
2024/01/20 06:22:29;;;;;;;23.02;15.80;;;;;;;;;;5024809;28;20569;-73
2024/01/20 06:24:55;;;;;;;29.70;16.77;;;;;;;;;;5025719;28;20532;-73
2024/01/20 06:27:21;;;;;;;21.15;15.45;;;;;;;;;;5026879;28;20120;-73
2024/01/20 06:29:47;;;;;;;22.25;14.60;;;;;;;;;;5023485;28;20128;-74
2024/01/20 06:32:13;;;;;;;27.40;13.68;;;;;;;;;;5025151;28;20124;-73
2024/01/20 06:34:39;;;;;;;20.13;14.13;;;;;;;;;;5025700;28;20115;-73
2024/01/20 06:37:05;;;;;;;21.65;13.65;;;;;;;;;;5027717;28;20091;-72
2024/01/20 06:39:31;;;;;;;20.05;13.20;;;;;;;;;;5026358;28;20729;-73
2024/01/20 06:41:57;;;;;;;19.75;13.43;;;;;;;;;;5025115;28;20053;-74
2024/01/20 06:44:23;;;;;;;19.48;13.40;;;;;;;;;;5025046;28;20120;-73
2024/01/20 06:46:50;;;;;;;17.73;11.95;;;;;;;;;;5025236;28;20650;-73
2024/01/20 06:49:16;;;;;;;16.92;11.25;;;;;;;;;;5025029;28;20099;-73
2024/01/20 06:51:43;;;;;;;18.95;12.65;;;;;;;;;;5026297;28;20041;-74
2024/01/20 06:54:09;;;;;;;20.38;12.13;;;;;;;;;;5025336;28;20049;-73
2024/01/20 06:56:35;;;;;;;20.58;12.23;;;;;;;;;;5026068;28;20096;-73
2024/01/20 06:59:01;;;;;;;20.83;12.88;;;;;;;;;;5025127;28;20501;-73
2024/01/20 07:01:27;;;;;;;20.75;14.50;;;;;;;;;;5026323;28;20034;-73
2024/01/20 07:03:53;;;;;;;20.20;13.75;;;;;;;;;;5025972;28;20041;-73
2024/01/20 07:06:23;;;;;;;18.25;11.55;;;;;;;;;;5023700;28;20050;-73
2024/01/20 07:08:50;;;;;;;18.98;12.10;;;;;;;;;;5023137;28;20128;-73
2024/01/20 07:11:16;;;;;;;18.55;12.13;;;;;;;;;;5025443;28;20049;-73
2024/01/20 07:13:42;;;;;;;16.17;11.00;;;;;;;;;;5026215;28;20061;-73
2024/01/20 07:16:12;;;;;;;18.17;11.88;;;;;;;;;;5025354;28;20140;-73
2024/01/20 07:18:39;;;;;;;16.60;10.70;;;;;;;;;;5023861;28;20593;-73
2024/01/20 07:21:05;;;;;;;17.88;11.23;;;;;;;;;;5026941;28;20037;-73
2024/01/20 07:23:31;;;;;;;20.08;12.48;;;;;;;;;;5024191;28;20663;-73
2024/01/20 07:26:00;;;;;;;16.55;11.07;;;;;;;;;;5023948;28;20060;-73
2024/01/20 07:28:27;;;;;;;22.75;14.40;;;;;;;;;;5025406;28;20515;-73
2024/01/20 07:30:53;;;;;;;24.25;14.75;;;;;;;;;;5025602;28;20048;-73
2024/01/20 07:33:19;;;;;;;24.15;14.57;;;;;;;;;;5021379;28;20045;-72
2024/01/20 07:35:45;;;;;;;21.95;14.43;;;;;;;;;;5024419;28;20077;-73
2024/01/20 07:38:11;;;;;;;24.25;15.80;;;;;;;;;;5022559;28;20053;-73
2024/01/20 07:40:37;;;;;;;25.27;14.95;;;;;;;;;;5025750;28;20042;-73
2024/01/20 07:43:03;;;;;;;26.30;17.00;;;;;;;;;;5024166;28;20073;-73
2024/01/20 07:45:31;;;;;;;28.90;15.75;;;;;;;;;;5022945;28;20151;-73
2024/01/20 07:47:57;;;;;;;28.80;15.75;;;;;;;;;;5022301;28;20053;-73
2024/01/20 07:50:23;;;;;;;24.85;15.50;;;;;;;;;;5024865;28;20059;-73
2024/01/20 07:52:49;;;;;;;25.45;15.88;;;;;;;;;;5023440;28;20125;-73
2024/01/20 07:55:15;;;;;;;29.67;16.85;;;;;;;;;;5024220;28;20479;-73
2024/01/20 07:57:42;;;;;;;24.88;15.25;;;;;;;;;;5023440;28;20096;-73
2024/01/20 08:00:09;;;;;;;27.13;15.57;;;;;;;;;;5023269;28;20151;-73
2024/01/20 08:02:35;;;;;;;23.55;15.02;;;;;;;;;;5023289;28;20053;-72
2024/01/20 08:05:01;;;;;;;23.95;14.27;;;;;;;;;;5020049;28;20076;-72
2024/01/20 08:07:27;;;;;;;22.85;15.02;;;;;;;;;;5024459;28;20087;-73
2024/01/20 08:09:54;;;;;;;28.45;16.70;;;;;;;;;;5022828;28;20041;-73
2024/01/20 08:12:20;;;;;;;25.40;15.20;;;;;;;;;;5022364;28;20049;-73
2024/01/20 08:14:46;;;;;;;31.30;18.23;;;;;;;;;;5023005;28;20132;-73
2024/01/20 08:17:12;;;;;;;31.73;16.58;;;;;;;;;;5021664;28;20045;-74
2024/01/20 08:19:38;;;;;;;32.92;19.50;;;;;;;;;;5025656;28;20117;-73
2024/01/20 08:22:04;;;;;;;25.38;16.67;;;;;;;;;;5022453;28;20049;-73
2024/01/20 08:24:30;;;;;;;29.85;17.67;;;;;;;;;;5023344;28;20045;-73
2024/01/20 08:26:56;;;;;;;29.90;18.10;;;;;;;;;;5022842;28;20049;-73
2024/01/20 08:29:22;;;;;;;30.77;17.20;;;;;;;;;;5020292;28;20452;-74
2024/01/20 08:31:48;;;;;;;29.40;19.30;;;;;;;;;;5021659;28;20045;-74
2024/01/20 08:34:14;;;;;;;30.45;17.08;;;;;;;;;;5021118;28;20044;-72
2024/01/20 08:36:40;;;;;;;28.10;16.17;;;;;;;;;;5023793;28;20049;-73
2024/01/20 08:39:07;;;;;;;30.63;18.88;;;;;;;;;;5024670;28;20049;-72
2024/01/20 08:41:33;;;;;;;28.70;18.33;;;;;;;;;;5023781;28;20559;-72
2024/01/20 08:43:59;;;;;;;28.20;17.35;;;;;;;;;;5022645;28;20052;-72
2024/01/20 08:46:25;;;;;;;33.70;20.63;;;;;;;;;;5022414;28;20558;-71
2024/01/20 08:48:51;;;;;;;33.22;19.20;;;;;;;;;;5016826;28;20100;-76
2024/01/20 08:51:17;;;;;;;33.25;19.77;;;;;;;;;;5021077;28;20052;-73
2024/01/20 08:53:43;;;;;;;31.98;18.90;;;;;;;;;;5025944;28;20079;-72
2024/01/20 08:56:09;;;;;;;30.63;16.75;;;;;;;;;;5022706;28;20096;-76
2024/01/20 08:58:35;;;;;;;29.98;19.38;;;;;;;;;;5013024;28;20709;-77
2024/01/20 09:01:01;;;;;;;33.38;18.60;;;;;;;;;;5021806;28;20207;-76
2024/01/20 09:03:27;;;;;;;34.35;19.58;;;;;;;;;;5021392;28;20050;-74
2024/01/20 09:05:53;;;;;;;35.30;20.00;;;;;;;;;;5021387;28;20041;-77
2024/01/20 09:08:19;;;;;;;30.92;18.52;;;;;;;;;;5020034;28;20054;-71
2024/01/20 09:10:45;;;;;;;31.92;19.35;;;;;;;;;;5021231;28;20060;-73
2024/01/20 09:13:11;;;;;;;35.97;21.90;;;;;;;;;;5023526;28;20416;-71
2024/01/20 09:15:37;;;;;;;29.25;19.23;;;;;;;;;;5019173;28;20042;-70
2024/01/20 09:18:03;;;;;;;31.80;18.55;;;;;;;;;;5023260;28;20053;-70
2024/01/20 09:20:29;;;;;;;34.03;19.00;;;;;;;;;;5025538;28;20048;-70
2024/01/20 09:22:55;;;;;;;27.80;18.15;;;;;;;;;;5025190;28;20477;-70
2024/01/20 09:25:21;;;;;;;28.65;17.35;;;;;;;;;;5015432;28;20053;-70
2024/01/20 09:27:47;;;;;;;28.77;17.55;;;;;;;;;;5012266;28;20057;-70
2024/01/20 09:30:13;;;;;;;29.55;18.98;;;;;;;;;;5019188;28;20502;-69
2024/01/20 09:32:39;;;;;;;38.88;20.55;;;;;;;;;;5017763;28;20065;-74
2024/01/20 09:35:05;;;;;;;34.97;19.85;;;;;;;;;;5021726;28;20042;-72
2024/01/20 09:37:31;;;;;;;32.65;20.00;;;;;;;;;;5020718;28;20607;-71
2024/01/20 09:40:00;;;;;;;31.60;18.55;;;;;;;;;;5019320;28;20068;-72
2024/01/20 09:42:26;;;;;;;34.97;19.52;;;;;;;;;;5021620;28;20049;-75
2024/01/20 09:44:53;;;;;;;36.97;20.38;;;;;;;;;;5021229;28;20298;-70
2024/01/20 09:47:19;;;;;;;34.03;19.75;;;;;;;;;;5013026;28;20054;-72
2024/01/20 09:49:45;;;;;;;32.28;19.00;;;;;;;;;;5016998;28;20054;-72
2024/01/20 09:52:24;;;;;;;35.90;20.63;;;;;;;;;;5018703;28;20572;-71
2024/01/20 09:54:53;;;;;;;35.88;21.17;;;;;;;;;;5019025;28;20045;-73
2024/01/20 09:57:20;;;;;;;35.00;19.70;;;;;;;;;;5022107;28;20129;-72
2024/01/20 09:59:46;;;;;;;30.60;18.63;;;;;;;;;;5019340;28;20485;-72
2024/01/20 10:02:16;;;;;;;31.42;18.17;;;;;;;;;;5016816;28;20473;-71
2024/01/20 10:04:43;;;;;;;29.48;17.23;;;;;;;;;;5018606;28;20112;-72
2024/01/20 10:07:09;;;;;;;30.75;17.27;;;;;;;;;;5020193;28;20037;-71
2024/01/20 10:09:35;;;;;;;25.65;17.05;;;;;;;;;;5024133;28;20060;-71
2024/01/20 10:12:01;;;;;;;30.95;17.13;;;;;;;;;;5022902;28;20401;-72
2024/01/20 10:14:27;;;;;;;28.80;15.98;;;;;;;;;;5024272;28;20044;-72
2024/01/20 10:16:53;;;;;;;26.67;15.57;;;;;;;;;;5022102;28;20049;-72
2024/01/20 10:19:19;;;;;;;25.50;14.80;;;;;;;;;;5024898;28;20103;-71
2024/01/20 10:21:45;;;;;;;25.60;15.23;;;;;;;;;;5021580;28;20041;-72
2024/01/20 10:24:11;;;;;;;22.23;13.57;;;;;;;;;;5013404;28;20460;-72
2024/01/20 10:26:44;;;;;;;25.92;16.27;;;;;;;;;;5024583;28;20053;-71
2024/01/20 10:29:10;;;;;;;30.98;16.52;;;;;;;;;;5025237;28;20501;-71
2024/01/20 10:31:36;;;;;;;29.88;16.23;;;;;;;;;;5015847;28;20050;-72
2024/01/20 10:34:02;;;;;;;26.33;16.17;;;;;;;;;;5013459;28;20045;-71
2024/01/20 10:36:28;;;;;;;29.55;16.45;;;;;;;;;;5012649;28;20132;-70
2024/01/20 10:38:54;;;;;;;32.63;17.27;;;;;;;;;;5021119;28;20034;-71
2024/01/20 10:41:24;;;;;;;27.35;16.60;;;;;;;;;;5019125;28;20042;-69
2024/01/20 10:44:02;;;;;;;25.73;14.70;;;;;;;;;;5018146;28;20152;-77
2024/01/20 10:46:31;;;;;;;25.77;15.00;;;;;;;;;;5017422;28;20048;-78
2024/01/20 10:49:00;;;;;;;28.33;17.10;;;;;;;;;;5023136;28;20072;-78
2024/01/20 10:51:27;;;;;;;32.10;18.17;;;;;;;;;;5020158;28;20046;-78
2024/01/20 10:53:54;;;;;;;26.00;15.52;;;;;;;;;;5023459;28;20111;-78
2024/01/20 10:56:21;;;;;;;27.75;14.93;;;;;;;;;;5018809;28;20635;-78
2024/01/20 10:58:51;;;;;;;24.20;15.57;;;;;;;;;;5019742;28;20406;-77
2024/01/20 11:01:17;;;;;;;22.55;15.52;;;;;;;;;;5028053;28;20048;-78
2024/01/20 11:03:43;;;;;;;32.85;16.67;;;;;;;;;;5025410;28;20727;-78
2024/01/20 11:06:19;;;;;;;32.67;18.52;;;;;;;;;;5028154;28;20069;-78
2024/01/20 11:08:50;;;;;;;27.75;16.65;;;;;;;;;;5024118;28;20046;-76
2024/01/20 11:11:16;;;;;;;24.52;14.82;;;;;;;;;;5022841;28;20123;-77
2024/01/20 11:13:45;;;;;;;25.75;14.80;;;;;;;;;;5019671;28;20136;-70
2024/01/20 11:16:22;;;;;;;25.77;14.23;;;;;;;;;;5027458;28;20077;-72
2024/01/20 11:18:48;;;;;;;25.05;15.60;;;;;;;;;;5016831;28;20057;-72
2024/01/20 11:21:19;;;;;;;29.58;16.33;;;;;;;;;;5023660;28;20085;-71
2024/01/20 11:24:05;;;;;;;31.45;17.30;;;;;;;;;;5018249;28;20089;-72
2024/01/20 11:26:35;;;;;;;29.73;16.63;;;;;;;;;;5017586;28;20057;-67
2024/01/20 11:29:03;;;;;;;29.73;18.02;;;;;;;;;;5018659;28;20496;-71
2024/01/20 11:31:32;;;;;;;32.22;16.95;;;;;;;;;;5014586;28;20107;-72
2024/01/20 11:34:02;;;;;;;33.80;18.45;;;;;;;;;;5014131;28;20488;-72
2024/01/20 11:36:29;;;;;;;32.25;18.00;;;;;;;;;;5016899;28;20114;-72
2024/01/20 11:38:57;;;;;;;28.30;17.38;;;;;;;;;;5025329;28;20049;-72
2024/01/20 11:41:23;;;;;;;27.48;16.83;;;;;;;;;;5027651;28;20045;-71
2024/01/20 11:43:49;;;;;;;27.92;16.77;;;;;;;;;;5026157;28;20108;-71
2024/01/20 11:46:15;;;;;;;29.08;17.95;;;;;;;;;;5022788;28;20559;-71
2024/01/20 11:48:46;;;;;;;31.77;18.42;;;;;;;;;;5024257;28;20041;-71
2024/01/20 11:51:13;;;;;;;35.63;18.42;;;;;;;;;;5024437;28;20053;-72
2024/01/20 11:53:39;;;;;;;29.95;18.60;;;;;;;;;;5030062;28;20045;-72
2024/01/20 11:56:05;;;;;;;36.30;20.25;;;;;;;;;;5025181;28;20136;-72
2024/01/20 11:58:31;;;;;;;37.63;21.75;;;;;;;;;;5024643;28;20515;-72
2024/01/20 12:00:58;;;;;;;34.47;19.92;;;;;;;;;;5025874;28;20524;-71
2024/01/20 12:03:25;;;;;;;37.00;21.95;;;;;;;;;;5021232;28;20052;-71
2024/01/20 12:05:51;;;;;;;38.50;20.23;;;;;;;;;;5022309;28;20057;-71
2024/01/20 12:08:17;;;;;;;40.95;23.00;;;;;;;;;;5015214;28;20049;-74
2024/01/20 12:10:44;;;;;;;36.10;22.08;;;;;;;;;;5021777;28;20172;-76
2024/01/20 12:13:13;;;;;;;38.13;23.17;;;;;;;;;;5022617;28;20608;-73
2024/01/20 12:15:40;;;;;;;38.80;23.92;;;;;;;;;;5022759;28;20052;-70
2024/01/20 12:18:06;;;;;;;44.42;25.15;;;;;;;;;;5019524;28;20108;-71
2024/01/20 12:20:32;;;;;;;44.67;26.27;;;;;;;;;;5024177;28;20084;-71
2024/01/20 12:23:02;;;;;;;44.22;26.00;;;;;;;;;;5026030;28;20053;-70
2024/01/20 12:25:28;;;;;;;39.25;24.10;;;;;;;;;;5020665;28;20045;-71
2024/01/20 12:27:54;;;;;;;41.90;23.38;;;;;;;;;;5012519;28;20081;-70
2024/01/20 12:30:20;;;;;;;42.90;25.13;;;;;;;;;;5019378;28;20530;-71
2024/01/20 12:32:46;;;;;;;45.20;26.80;;;;;;;;;;5016354;28;20427;-70
2024/01/20 12:35:12;;;;;;;42.92;27.33;;;;;;;;;;5022559;28;20045;-71
2024/01/20 12:37:39;;;;;;;42.60;24.23;;;;;;;;;;5020929;28;20112;-71
2024/01/20 12:40:08;;;;;;;36.25;23.13;;;;;;;;;;5011045;28;20485;-71
2024/01/20 12:42:35;;;;;;;42.72;23.67;;;;;;;;;;5017374;28;20663;-71
2024/01/20 12:45:01;;;;;;;35.38;23.20;;;;;;;;;;5022460;28;20045;-71
2024/01/20 12:47:28;;;;;;;33.67;21.40;;;;;;;;;;5012954;28;20045;-72
2024/01/20 12:49:54;;;;;;;37.17;21.67;;;;;;;;;;5020598;28;20052;-72
2024/01/20 12:52:21;;;;;;;35.03;21.13;;;;;;;;;;5019444;28;20056;-71
2024/01/20 12:54:47;;;;;;;32.10;21.40;;;;;;;;;;5023612;28;20426;-72
2024/01/20 12:57:13;;;;;;;31.63;20.83;;;;;;;;;;5024828;28;20053;-72
2024/01/20 12:59:39;;;;;;;36.25;22.10;;;;;;;;;;5017567;28;20052;-72
2024/01/20 13:02:05;;;;;;;32.20;19.85;;;;;;;;;;5020084;28;20049;-71
2024/01/20 13:04:31;;;;;;;33.80;20.92;;;;;;;;;;5020968;28;20291;-72
2024/01/20 13:06:57;;;;;;;30.35;18.33;;;;;;;;;;5024209;28;20045;-71
2024/01/20 13:09:23;;;;;;;28.92;17.13;;;;;;;;;;5023651;28;20046;-72
2024/01/20 13:11:49;;;;;;;27.40;18.35;;;;;;;;;;5018538;28;20041;-72
2024/01/20 13:14:15;;;;;;;34.45;19.35;;;;;;;;;;5024212;28;20045;-72
2024/01/20 13:16:41;;;;;;;29.02;17.77;;;;;;;;;;5018039;28;20205;-72
2024/01/20 13:19:07;;;;;;;29.25;18.15;;;;;;;;;;5018236;28;20528;-71
2024/01/20 13:21:33;;;;;;;25.85;17.25;;;;;;;;;;5017045;28;20049;-72
2024/01/20 13:23:59;;;;;;;29.27;16.40;;;;;;;;;;5016258;28;20507;-71
2024/01/20 13:26:26;;;;;;;25.50;16.67;;;;;;;;;;5024626;28;20041;-71
2024/01/20 13:28:52;;;;;;;27.13;17.10;;;;;;;;;;5022888;28;20045;-71
2024/01/20 13:31:18;;;;;;;28.88;16.52;;;;;;;;;;5018559;28;20052;-72
2024/01/20 13:33:44;;;;;;;26.60;16.27;;;;;;;;;;5019507;28;20056;-71
2024/01/20 13:36:11;;;;;;;24.88;15.75;;;;;;;;;;5020170;28;20400;-71
2024/01/20 13:38:39;;;;;;;20.67;13.93;;;;;;;;;;5017199;28;20053;-72
2024/01/20 13:41:06;;;;;;;23.33;14.88;;;;;;;;;;5019901;28;20042;-71
2024/01/20 13:43:32;;;;;;;25.70;13.82;;;;;;;;;;5012210;28;20073;-72
2024/01/20 13:45:58;;;;;;;21.60;13.85;;;;;;;;;;5023638;28;20049;-72
2024/01/20 13:48:24;;;;;;;22.10;13.30;;;;;;;;;;5022671;28;20518;-71
2024/01/20 13:50:51;;;;;;;23.08;14.20;;;;;;;;;;5019316;28;20056;-72
2024/01/20 13:53:17;;;;;;;22.40;13.13;;;;;;;;;;5022921;28;20081;-72
2024/01/20 13:55:43;;;;;;;21.67;12.68;;;;;;;;;;5023496;28;20058;-72
2024/01/20 13:58:09;;;;;;;21.98;11.98;;;;;;;;;;5020603;28;20049;-72
2024/01/20 14:00:35;;;;;;;21.38;12.55;;;;;;;;;;5019031;28;20096;-72
2024/01/20 14:03:01;;;;;;;22.95;12.52;;;;;;;;;;5022539;28;20456;-72
2024/01/20 14:05:27;;;;;;;21.55;13.25;;;;;;;;;;5020266;28;20041;-72
2024/01/20 14:07:53;;;;;;;18.77;11.23;;;;;;;;;;5018703;28;20056;-71
2024/01/20 14:10:19;;;;;;;19.92;12.55;;;;;;;;;;5018691;28;20053;-72
2024/01/20 14:12:46;;;;;;;18.20;10.60;;;;;;;;;;5019181;28;20045;-71
2024/01/20 14:15:12;;;;;;;18.00;10.70;;;;;;;;;;5017479;28;20050;-72
2024/01/20 14:17:38;;;;;;;16.17;10.35;;;;;;;;;;5020563;28;20250;-73
2024/01/20 14:20:05;;;;;;;15.77;10.30;;;;;;;;;;5020601;28;20059;-73